KORF/ORF METAR and TAF weather

Enter ICAO airport designator
Station Type Date Time Source
KORF METAR 2020/07/10 20:51 UTC NOAA

KORF 102051Z VRB06KT 10SM SCT047 BKN055 34/22 A2978 RMK AO2 SLP084 T03390222 56013


Station Type Date Time Source
KORF Decoded METAR 2020/07/10 20:51 UTC NOAA

NORFOLK INTERNATIONAL AIRPORT , VA, United States (KORF) 36-54N 076-12W 14M
Jul 10, 2020 - 04:51 PM EDT / 2020.07.10 2051 UTC
Wind: Variable at 7 MPH (6 KT):0
Visibility: 10 mile(s):0
Sky conditions: mostly cloudy
Temperature: 93.0 F (33.9 C)
Heat index: 100.8 F (38.2 C):1
Dew Point: 72.0 F (22.2 C)
Relative Humidity: 50%
Pressure (altimeter): 29.78 in. Hg (1008 hPa)
Pressure tendency: 0.04 inches (1.3 hPa) lower than three hours ago
ob: KORF 102051Z VRB06KT 10SM SCT047 BKN055 34/22 A2978 RMK AO2 SLP084 T03390222 56013
cycle: 21

Station Type Date Time Source
KORF TAF 2020/07/10 18:30 UTC NOAA

TAF KORF 101728Z 1018/1118 28009KT P6SM SCT030
FM102200 24007KT P6SM SCT045
FM110000 17005KT P6SM FEW045
FM110300 20007KT P6SM SKC
FM111300 22008KT P6SM SCT070

Example: see airport list